Aviation Digital Data Service (ADDS)

Output produced by METARs form (1014 UTC 28 September 2021)
found at http://www.aviationweather.gov/metar/data/
 
METAR text: KILE 280956Z AUTO 16003KT 10SM CLR 22/17 A2992 RMK AO2 SLP119 T02170167
Conditions at: KILE (KILLEEN MUNI , TX, US) observed 0956 UTC 28 September 2021
Temperature: 21.7°C (71°F)
Dewpoint: 16.7°C (62°F) [RH = 73%]
Pressure (altimeter): 29.92 inches Hg (1013.3 mb)
[Sea-level pressure: 1011.9 mb]
Winds: from the SSE (160 degrees) at 3 MPH (3 knots; 1.5 m/s)
Visibility: 10 or more miles (16+ km)
Ceiling: at least 12,000 feet AGL
Clouds: sky clear below 12,000 feet AGL
Weather: automated observation with no human augmentation;
there may or may not be significant weather present at this time